Accueil
METAR-TAF:

METAR-TAF

Aéroports :

Aérodrome de Londres Biggin Hill

Londres Biggin Hill, Angleterre

latitude: 51-19N, longitude: 000-02E, altitude: 183 m

Observation

Le bulletin a été fait il y a 19 minutes, à 07:20 UTC
Vent 11 kt de nord/nord-ouest
Température 0°C
Humidité 93%
Pression 998 hPa
Visibilité 10 km ou plus
Nuages fragmentés à une hauteur de 600 ft

METAR: EGKB 230720Z 33011KT 9999 BKN006 M00/M01 Q0998

Heure: 07:39 (07:39 UTC)

Prévision

Le bulletin a été fait il y a 46 minutes, à 06:53 UTC
Prévision valable du 23 à 06 UTC au 23 à 15 UTC
Vent 4 kt de nord/nord-ouest
Visibilité 10 km ou plus
Quelques nuages à une hauteur de 2000 ft
Temporairement
du 23 à 06 UTC au 23 à 11 UTC
Visibilité: 8000 m
Nuages fragmentés à une hauteur de 600 ft

TAF: EGKB 230653Z 2306/2315 34004KT 9999 FEW020 TEMPO 2306/2311 8000 BKN006

Observations et prévisions météorologiques de plus de 4000 aéroports (messages METAR et TAF).

Les stations disponibles sont représentées par des disques jaunes et rouges sur la carte.

Passer la souris dessus pour voir le nom de la station.

Cliquer dessus pour voir les observations et prévisions météorologiques.

Pour changer de carte: cliquez sur les boutons verts avec une croix noire pour zoomer, sur le bouton vert avec un tiret pour effectuer un zoom arrière, ou sur les flèches vertes pour les cartes adjacentes.


METAR-TAF: